Time;durP1;ratioP1;P1;durP2;ratioP2;P2;SDS_P1;SDS_P2;PMS_P1;PMS_P2;Temp;Humidity;BMP_temperature;BMP_pressure;BME280_temperature;BME280_humidity;BME280_pressure;Samples;Min_cycle;Max_cycle;Signal;HPM_P1;HPM_P2
2024/03/19 00:01:36;;;;;;;6.10;3.70;;;-3.10;87.70;;;;;;5039831;28;20705;-43
2024/03/19 00:04:02;;;;;;;7.05;4.20;;;-3.10;87.70;;;;;;5038592;28;20473;-43
2024/03/19 00:06:27;;;;;;;8.10;4.15;;;-3.10;88.90;;;;;;5037400;28;20036;-43
2024/03/19 00:08:53;;;;;;;6.13;4.15;;;-3.10;88.50;;;;;;5039507;28;20576;-43
2024/03/19 00:11:22;;;;;;;7.75;3.47;;;-3.10;88.80;;;;;;5037067;28;20116;-43
2024/03/19 00:13:48;;;;;;;4.45;3.17;;;-3.10;89.20;;;;;;5037273;28;20032;-43
2024/03/19 00:16:14;;;;;;;8.38;3.97;;;-3.10;89.00;;;;;;5032200;28;20036;-43
2024/03/19 00:18:39;;;;;;;4.75;3.63;;;-3.20;89.00;;;;;;5040031;28;20029;-43
2024/03/19 00:21:05;;;;;;;6.40;3.88;;;-3.20;88.10;;;;;;5033192;28;20064;-44
2024/03/19 00:23:30;;;;;;;7.47;3.80;;;-3.20;88.40;;;;;;5035252;28;20392;-44
2024/03/19 00:25:56;;;;;;;5.65;3.35;;;-3.20;89.40;;;;;;5037615;28;20100;-43
2024/03/19 00:28:21;;;;;;;4.03;3.22;;;-3.30;89.40;;;;;;5043330;28;20108;-43
2024/03/19 00:30:49;;;;;;;6.05;3.95;;;-3.30;90.10;;;;;;5031023;28;20571;-43
2024/03/19 00:33:15;;;;;;;4.88;3.22;;;-3.30;90.10;;;;;;5043419;28;20097;-42
2024/03/19 00:35:46;;;;;;;5.00;3.35;;;-3.30;90.20;;;;;;5046912;28;20032;-43
2024/03/19 00:38:13;;;;;;;6.60;3.90;;;-3.40;90.50;;;;;;5045811;28;20124;-43
2024/03/19 00:40:38;;;;;;;5.45;3.42;;;-3.40;90.70;;;;;;5032793;28;20056;-43
2024/03/19 00:43:04;;;;;;;4.80;3.35;;;-3.40;91.10;;;;;;5051279;28;20076;-43
2024/03/19 00:45:30;;;;;;;8.57;4.00;;;-3.40;90.90;;;;;;5040548;28;20094;-44
2024/03/19 00:47:55;;;;;;;8.07;3.63;;;-3.40;90.40;;;;;;5037358;28;20088;-43
2024/03/19 00:50:21;;;;;;;6.90;3.60;;;-3.40;91.20;;;;;;5038097;28;20124;-42
2024/03/19 00:52:46;;;;;;;6.72;3.10;;;-3.50;91.40;;;;;;5044402;28;20029;-44
2024/03/19 00:55:12;;;;;;;4.90;3.17;;;-3.50;91.70;;;;;;5050143;28;20701;-45
2024/03/19 00:57:38;;;;;;;5.15;3.17;;;-3.50;91.70;;;;;;5046548;28;20634;-43
2024/03/19 01:00:14;;;;;;;7.68;3.85;;;-3.50;91.80;;;;;;5040511;28;20037;-43
2024/03/19 01:02:44;;;;;;;4.35;3.15;;;-3.60;92.20;;;;;;5035627;28;20037;-43
2024/03/19 01:05:11;;;;;;;5.85;3.40;;;-3.60;92.30;;;;;;5055313;28;20149;-43
2024/03/19 01:07:41;;;;;;;4.85;3.38;;;-3.60;92.40;;;;;;5044289;28;20029;-45
2024/03/19 01:10:11;;;;;;;5.75;3.30;;;-3.70;92.40;;;;;;5044963;28;20052;-43
2024/03/19 01:12:38;;;;;;;8.90;3.85;;;-3.70;91.90;;;;;;5042648;28;20733;-42
2024/03/19 01:15:05;;;;;;;4.72;3.20;;;-3.70;92.40;;;;;;5043063;28;20037;-43
2024/03/19 01:17:39;;;;;;;9.30;4.63;;;-3.70;93.00;;;;;;5041986;28;20028;-42
2024/03/19 01:20:09;;;;;;;6.68;4.22;;;-3.70;93.10;;;;;;5046253;28;20016;-42
2024/03/19 01:22:39;;;;;;;7.68;4.68;;;-3.70;92.90;;;;;;5043403;28;20031;-44
2024/03/19 01:25:08;;;;;;;6.28;3.55;;;-3.70;92.80;;;;;;5039243;28;20029;-43
2024/03/19 01:27:34;;;;;;;5.93;3.83;;;-3.70;93.00;;;;;;5045378;28;20025;-43
2024/03/19 01:29:59;;;;;;;8.80;4.20;;;-3.80;93.20;;;;;;5058516;28;20032;-43
2024/03/19 01:32:25;;;;;;;7.30;3.83;;;-3.80;93.70;;;;;;5040219;28;20383;-43
2024/03/19 01:34:50;;;;;;;5.43;4.00;;;-3.80;93.70;;;;;;5042044;28;20025;-43
2024/03/19 01:37:16;;;;;;;7.95;4.90;;;-3.80;93.90;;;;;;5048474;28;20031;-43
2024/03/19 01:39:41;;;;;;;5.90;3.90;;;-3.80;93.70;;;;;;5034978;28;20056;-43
2024/03/19 01:42:07;;;;;;;6.38;3.72;;;-3.90;93.90;;;;;;5046610;28;20028;-43
2024/03/19 01:44:33;;;;;;;6.35;4.03;;;-3.90;94.20;;;;;;5049265;28;20021;-43
2024/03/19 01:46:58;;;;;;;9.35;4.68;;;-3.90;94.00;;;;;;5052078;28;20119;-43
2024/03/19 01:49:25;;;;;;;6.75;3.95;;;-3.90;94.20;;;;;;5044547;28;20509;-43
2024/03/19 01:51:53;;;;;;;6.38;3.75;;;-3.90;94.60;;;;;;5048336;28;20020;-43
2024/03/19 01:54:19;;;;;;;6.72;3.60;;;-3.90;94.30;;;;;;5043894;28;20503;-43
2024/03/19 01:56:45;;;;;;;4.72;2.80;;;-3.90;94.60;;;;;;5047116;28;20115;-43
2024/03/19 01:59:10;;;;;;;4.93;3.10;;;-3.90;94.20;;;;;;5044786;28;20025;-43
2024/03/19 02:01:36;;;;;;;6.10;3.35;;;-4.00;94.30;;;;;;5047129;28;20036;-44
2024/03/19 02:04:02;;;;;;;6.05;3.40;;;-3.90;94.30;;;;;;5045886;28;20025;-43
2024/03/19 02:06:27;;;;;;;5.63;3.75;;;-4.00;94.60;;;;;;5050649;28;20454;-43
2024/03/19 02:09:12;;;;;;;5.78;3.58;;;-4.00;94.80;;;;;;5044564;28;20132;-43
2024/03/19 02:11:38;;;;;;;5.78;3.25;;;-4.00;94.80;;;;;;5037922;28;20026;-44
2024/03/19 02:14:04;;;;;;;4.65;3.50;;;-4.00;95.00;;;;;;5039725;28;20088;-43
2024/03/19 02:16:30;;;;;;;4.18;3.10;;;-4.00;95.40;;;;;;5047880;28;20044;-43
2024/03/19 02:19:04;;;;;;;5.55;3.35;;;-4.00;95.10;;;;;;5050260;28;20035;-44
2024/03/19 02:21:31;;;;;;;4.28;2.88;;;-4.10;95.00;;;;;;5044092;28;20025;-43
2024/03/19 02:23:58;;;;;;;3.25;2.63;;;-4.10;95.00;;;;;;5045713;28;20032;-42
2024/03/19 02:26:26;;;;;;;6.07;2.92;;;-3.90;95.40;;;;;;5045630;28;20025;-43
2024/03/19 02:28:59;;;;;;;3.58;2.90;;;-4.10;95.60;;;;;;5047304;28;20550;-44
2024/03/19 02:31:27;;;;;;;4.38;2.67;;;-4.20;95.40;;;;;;5040724;28;20028;-43
2024/03/19 02:33:52;;;;;;;3.45;2.85;;;-4.10;95.70;;;;;;5049305;28;20025;-44
2024/03/19 02:36:18;;;;;;;3.88;2.85;;;-4.20;95.80;;;;;;5046175;28;20404;-42
2024/03/19 02:38:44;;;;;;;6.88;3.15;;;-4.20;95.70;;;;;;5042287;28;20037;-42
2024/03/19 02:41:10;;;;;;;5.47;2.90;;;-4.20;95.90;;;;;;5038531;28;20075;-43
2024/03/19 02:43:39;;;;;;;6.35;3.22;;;-4.20;95.70;;;;;;5040576;28;20024;-43
2024/03/19 02:46:05;;;;;;;3.65;2.67;;;-4.20;95.50;;;;;;5054700;28;20033;-45
2024/03/19 02:48:31;;;;;;;4.60;3.30;;;-4.20;95.90;;;;;;5047777;28;20173;-43
2024/03/19 02:50:56;;;;;;;6.38;3.75;;;-4.20;96.00;;;;;;5044399;28;20040;-44
2024/03/19 02:53:23;;;;;;;3.83;2.88;;;-4.20;95.70;;;;;;5052325;28;20032;-44
2024/03/19 02:55:49;;;;;;;5.45;3.05;;;-4.20;95.60;;;;;;5041008;28;20047;-43
2024/03/19 02:58:18;;;;;;;6.78;3.58;;;-4.20;96.00;;;;;;5043922;28;20577;-43
2024/03/19 03:00:44;;;;;;;6.15;3.83;;;-4.30;96.10;;;;;;5047075;28;20044;-43
2024/03/19 03:03:09;;;;;;;7.35;3.22;;;-4.30;97.00;;;;;;5047786;28;20623;-43
2024/03/19 03:05:35;;;;;;;5.03;2.78;;;-4.30;96.90;;;;;;5039491;28;20012;-43
2024/03/19 03:08:01;;;;;;;6.07;3.55;;;-4.30;96.50;;;;;;5043070;28;20064;-43
2024/03/19 03:10:26;;;;;;;4.82;2.88;;;-4.30;96.80;;;;;;5047687;28;20025;-43
2024/03/19 03:12:52;;;;;;;4.30;3.03;;;-4.30;97.00;;;;;;5040893;28;20045;-43
2024/03/19 03:15:17;;;;;;;5.10;3.05;;;-4.30;97.00;;;;;;5043362;28;20498;-43
2024/03/19 03:17:43;;;;;;;4.15;3.10;;;-4.30;97.30;;;;;;5043062;28;20067;-43
2024/03/19 03:20:11;;;;;;;5.03;3.58;;;-4.30;97.10;;;;;;5043102;28;20032;-45
2024/03/19 03:22:37;;;;;;;4.47;3.20;;;-4.30;97.30;;;;;;5043388;28;20028;-43
2024/03/19 03:25:08;;;;;;;7.82;3.78;;;-4.30;97.50;;;;;;5039474;28;20025;-43
2024/03/19 03:27:34;;;;;;;4.18;3.17;;;-4.30;97.60;;;;;;5047153;28;20010;-43
2024/03/19 03:29:59;;;;;;;7.65;3.65;;;-4.30;97.50;;;;;;5042074;28;20113;-44
2024/03/19 03:32:26;;;;;;;8.80;3.38;;;-4.40;97.00;;;;;;5044883;28;20025;-43
2024/03/19 03:34:51;;;;;;;6.28;4.13;;;-4.40;97.30;;;;;;5045989;28;20142;-43
2024/03/19 03:37:17;;;;;;;4.13;3.00;;;-4.40;97.10;;;;;;5048991;28;20127;-43
2024/03/19 03:39:43;;;;;;;6.18;3.45;;;-4.40;96.50;;;;;;5044152;28;20033;-43
2024/03/19 03:42:09;;;;;;;7.70;4.55;;;-4.40;97.10;;;;;;5050382;28;20021;-43
2024/03/19 03:44:34;;;;;;;12.57;3.67;;;-4.40;97.10;;;;;;5054293;28;20041;-42
2024/03/19 03:47:00;;;;;;;6.95;3.67;;;-4.40;98.50;;;;;;5052076;28;20557;-43
2024/03/19 03:49:26;;;;;;;7.22;4.00;;;-4.40;98.40;;;;;;5046855;28;20158;-43
2024/03/19 03:51:52;;;;;;;3.10;2.63;;;-4.40;98.70;;;;;;5042272;28;20074;-43
2024/03/19 03:54:17;;;;;;;6.63;3.85;;;-4.40;98.90;;;;;;5050466;28;20100;-44
2024/03/19 03:56:43;;;;;;;4.57;3.50;;;-4.40;98.70;;;;;;5046337;28;20029;-43
2024/03/19 03:59:08;;;;;;;5.22;2.72;;;-4.50;99.10;;;;;;5049821;28;20021;-42
2024/03/19 04:01:34;;;;;;;5.13;3.13;;;-4.40;99.80;;;;;;5046234;28;20452;-42
2024/03/19 04:03:59;;;;;;;10.18;3.08;;;-4.40;99.90;;;;;;5045046;28;20040;-43
2024/03/19 04:06:25;;;;;;;3.47;3.17;;;-4.50;99.80;;;;;;5047323;28;20025;-42
2024/03/19 04:08:50;;;;;;;5.28;3.10;;;-4.40;99.50;;;;;;5048860;28;20520;-43
2024/03/19 04:11:16;;;;;;;4.32;3.22;;;-4.40;99.70;;;;;;5047175;28;20033;-43
2024/03/19 04:13:41;;;;;;;5.63;3.40;;;-4.50;99.90;;;;;;5055035;28;20030;-43
2024/03/19 04:16:07;;;;;;;4.85;3.03;;;-4.50;99.80;;;;;;5048601;28;20053;-42
2024/03/19 04:18:32;;;;;;;6.03;3.22;;;-4.50;99.50;;;;;;5046413;28;20278;-44
2024/03/19 04:20:58;;;;;;;7.60;3.20;;;-4.50;99.60;;;;;;5044817;28;20112;-46
2024/03/19 04:23:23;;;;;;;5.10;3.08;;;-4.50;99.30;;;;;;5058151;28;20500;-42
2024/03/19 04:25:48;;;;;;;5.88;3.35;;;-4.50;98.80;;;;;;5045911;28;20036;-43
2024/03/19 04:28:14;;;;;;;5.93;3.72;;;-4.50;98.60;;;;;;5050031;28;20036;-44
2024/03/19 04:30:39;;;;;;;5.47;3.55;;;-4.50;98.60;;;;;;5051752;28;20389;-43
2024/03/19 04:33:05;;;;;;;4.93;2.88;;;-4.50;98.50;;;;;;5056061;28;20032;-45
2024/03/19 04:35:30;;;;;;;5.03;3.20;;;-4.50;98.50;;;;;;5048888;28;20041;-43
2024/03/19 04:37:56;;;;;;;4.90;3.33;;;-4.50;98.60;;;;;;5043094;28;20172;-43
2024/03/19 04:40:21;;;;;;;6.57;3.25;;;-4.50;98.80;;;;;;5047531;28;20555;-45
2024/03/19 04:42:48;;;;;;;6.15;3.10;;;-4.50;98.80;;;;;;5055588;28;20089;-45
2024/03/19 04:45:14;;;;;;;4.75;3.38;;;-4.50;99.00;;;;;;5049434;28;20053;-43
2024/03/19 04:47:39;;;;;;;5.70;3.20;;;-4.50;98.90;;;;;;5049366;28;20040;-47
2024/03/19 04:50:05;;;;;;;5.35;3.50;;;-4.60;99.00;;;;;;5045399;28;20489;-48
2024/03/19 04:52:30;;;;;;;4.20;3.28;;;-4.60;99.00;;;;;;5045195;28;20033;-48
2024/03/19 04:54:56;;;;;;;5.60;3.67;;;-4.60;98.70;;;;;;5046821;28;20024;-50
2024/03/19 04:57:22;;;;;;;8.75;4.22;;;-4.50;98.50;;;;;;5049585;28;20177;-50
2024/03/19 04:59:48;;;;;;;5.90;4.18;;;-4.50;98.50;;;;;;5044609;28;20056;-51
2024/03/19 05:02:13;;;;;;;6.60;3.75;;;-4.50;98.80;;;;;;5045008;28;20029;-48
2024/03/19 05:04:39;;;;;;;8.82;4.13;;;-4.60;98.90;;;;;;5045243;28;20036;-52
2024/03/19 05:07:04;;;;;;;6.70;3.53;;;-4.50;99.20;;;;;;5049402;28;20401;-52
2024/03/19 05:09:29;;;;;;;6.97;3.92;;;-4.50;99.30;;;;;;5056501;28;20120;-50
2024/03/19 05:11:55;;;;;;;8.13;3.75;;;-4.50;99.40;;;;;;5038546;28;20028;-49
2024/03/19 05:14:21;;;;;;;8.35;4.20;;;-4.50;99.60;;;;;;5068107;28;20078;-48
2024/03/19 05:16:46;;;;;;;8.00;4.45;;;-4.50;99.50;;;;;;5046668;28;20035;-50
2024/03/19 05:19:12;;;;;;;7.55;3.92;;;-4.50;99.30;;;;;;5049364;28;20024;-49
2024/03/19 05:21:38;;;;;;;6.60;3.75;;;-4.40;99.30;;;;;;5049071;28;20108;-51
2024/03/19 05:24:04;;;;;;;8.50;4.25;;;-4.40;99.70;;;;;;5053311;28;20055;-49
2024/03/19 05:26:30;;;;;;;7.65;3.75;;;-4.40;99.70;;;;;;5045523;28;20025;-50
2024/03/19 05:28:55;;;;;;;5.85;3.97;;;-4.30;99.90;;;;;;5046523;28;20017;-50
2024/03/19 05:31:24;;;;;;;6.63;3.95;;;-4.30;99.60;;;;;;5048712;28;20033;-47
2024/03/19 05:33:50;;;;;;;5.22;3.53;;;-4.20;99.70;;;;;;5047002;28;20024;-48
2024/03/19 05:36:16;;;;;;;5.03;3.55;;;-4.20;99.90;;;;;;5043798;28;20039;-52
2024/03/19 05:38:41;;;;;;;7.10;4.10;;;-4.20;99.60;;;;;;5049301;28;20041;-52
2024/03/19 05:41:07;;;;;;;7.10;3.60;;;-4.10;99.70;;;;;;5040498;28;20032;-48
2024/03/19 05:43:32;;;;;;;7.50;4.85;;;-4.00;99.60;;;;;;5042334;28;20041;-46
2024/03/19 05:45:58;;;;;;;8.55;4.20;;;-3.90;99.70;;;;;;5044651;28;20025;-52
2024/03/19 05:48:23;;;;;;;5.88;3.78;;;-3.80;99.60;;;;;;5050387;28;20511;-45
2024/03/19 05:50:49;;;;;;;7.05;4.35;;;-3.70;99.50;;;;;;5042827;28;20082;-50
2024/03/19 05:53:14;;;;;;;7.78;4.03;;;-3.60;99.50;;;;;;5044487;28;20159;-51
2024/03/19 05:55:40;;;;;;;7.78;4.15;;;-3.40;99.40;;;;;;5040187;28;20035;-50
2024/03/19 05:58:05;;;;;;;12.10;3.90;;;-3.00;99.40;;;;;;5041848;28;20021;-48
2024/03/19 06:00:31;;;;;;;5.38;3.90;;;-2.40;99.10;;;;;;5048559;28;20021;-47
2024/03/19 06:02:56;;;;;;;5.75;3.50;;;-1.60;98.50;;;;;;5044379;28;20033;-48
2024/03/19 06:05:22;;;;;;;7.72;3.78;;;-0.90;96.80;;;;;;5047640;28;20047;-46
2024/03/19 06:07:47;;;;;;;8.30;4.75;;;-0.20;95.30;;;;;;5040175;28;20108;-47
2024/03/19 06:10:13;;;;;;;9.35;5.30;;;0.40;94.00;;;;;;5045596;28;20306;-49
2024/03/19 06:12:39;;;;;;;7.72;5.05;;;1.10;93.40;;;;;;5043116;28;20399;-49
2024/03/19 06:15:07;;;;;;;8.05;4.45;;;1.70;92.30;;;;;;5044068;28;20037;-51
2024/03/19 06:17:33;;;;;;;14.85;5.95;;;2.30;91.50;;;;;;5047934;28;20055;-49
2024/03/19 06:19:58;;;;;;;9.80;6.00;;;2.90;90.80;;;;;;5043255;28;20114;-50
2024/03/19 06:22:23;;;;;;;9.68;5.55;;;3.40;89.80;;;;;;5057773;28;20113;-49
2024/03/19 06:24:49;;;;;;;8.73;4.95;;;3.80;86.90;;;;;;5040495;28;20397;-53
2024/03/19 06:27:14;;;;;;;10.30;5.55;;;4.30;85.50;;;;;;5061323;28;20036;-47
2024/03/19 06:29:40;;;;;;;9.85;5.80;;;4.70;83.60;;;;;;5045112;28;20036;-53
2024/03/19 06:32:06;;;;;;;8.07;5.55;;;5.20;82.50;;;;;;5055886;28;20052;-50
2024/03/19 06:34:32;;;;;;;9.10;4.88;;;5.70;80.80;;;;;;5039068;28;20070;-49
2024/03/19 06:36:58;;;;;;;9.38;5.00;;;6.00;77.10;;;;;;5054037;28;20045;-46
2024/03/19 06:39:24;;;;;;;9.75;5.82;;;6.40;75.30;;;;;;5038927;28;20059;-52
2024/03/19 06:41:50;;;;;;;10.88;4.85;;;6.70;75.10;;;;;;5046773;28;20032;-49
2024/03/19 06:44:16;;;;;;;9.38;5.35;;;7.00;72.30;;;;;;5045159;28;20094;-48
2024/03/19 06:46:41;;;;;;;7.18;4.93;;;7.30;69.70;;;;;;5043490;28;20086;-50
2024/03/19 06:49:07;;;;;;;6.93;4.47;;;7.40;66.00;;;;;;5043350;28;20120;-47
2024/03/19 06:51:33;;;;;;;8.85;5.30;;;7.70;63.50;;;;;;5043497;28;20480;-48
2024/03/19 06:53:58;;;;;;;6.90;4.47;;;7.90;65.40;;;;;;5043157;28;20027;-46
2024/03/19 06:56:25;;;;;;;8.02;4.70;;;8.20;63.40;;;;;;5039879;28;20039;-47
2024/03/19 06:58:50;;;;;;;6.45;4.88;;;8.50;61.50;;;;;;5044633;28;20071;-47
2024/03/19 07:01:16;;;;;;;7.45;4.93;;;8.80;62.20;;;;;;5039544;28;20685;-48
2024/03/19 07:03:43;;;;;;;7.18;4.47;;;8.80;59.80;;;;;;5039144;28;20028;-51
2024/03/19 07:06:09;;;;;;;6.35;4.35;;;9.20;59.20;;;;;;5038992;28;20029;-49
2024/03/19 07:08:34;;;;;;;9.60;5.38;;;9.40;56.90;;;;;;5047653;28;20032;-45
2024/03/19 07:11:00;;;;;;;5.30;3.70;;;9.40;54.00;;;;;;5042488;28;20066;-48
2024/03/19 07:13:25;;;;;;;8.93;5.22;;;9.60;55.20;;;;;;5052637;28;20158;-48
2024/03/19 07:15:51;;;;;;;8.00;5.30;;;9.80;54.30;;;;;;5041359;28;20032;-50
2024/03/19 07:18:16;;;;;;;6.50;4.32;;;10.00;52.00;;;;;;5046647;28;20048;-46
2024/03/19 07:20:46;;;;;;;10.75;5.78;;;10.30;53.70;;;;;;5055002;28;20264;-46
2024/03/19 07:23:12;;;;;;;7.72;5.82;;;10.50;52.10;;;;;;5056648;28;20024;-48
2024/03/19 07:25:37;;;;;;;8.85;5.60;;;10.50;49.10;;;;;;5048117;28;20031;-46
2024/03/19 07:28:03;;;;;;;6.82;4.85;;;10.60;48.00;;;;;;5049854;28;20039;-49
2024/03/19 07:30:29;;;;;;;7.78;5.68;;;10.80;48.30;;;;;;5048151;28;20091;-47
2024/03/19 07:32:55;;;;;;;9.38;6.90;;;10.90;47.60;;;;;;5048536;28;20029;-49
2024/03/19 07:35:21;;;;;;;7.32;5.40;;;10.90;41.90;;;;;;5042208;28;20094;-47
2024/03/19 07:37:46;;;;;;;8.70;5.72;;;10.70;42.60;;;;;;5046633;28;20020;-48
2024/03/19 07:40:13;;;;;;;7.35;6.10;;;10.70;42.70;;;;;;5036316;28;20542;-48
2024/03/19 07:42:40;;;;;;;8.70;6.00;;;10.70;40.60;;;;;;5046543;28;20028;-46
2024/03/19 07:45:06;;;;;;;8.70;5.70;;;10.60;40.30;;;;;;5046197;28;20025;-47
2024/03/19 07:47:33;;;;;;;9.93;6.03;;;10.80;41.30;;;;;;5044163;28;20036;-48
2024/03/19 07:49:59;;;;;;;9.23;5.80;;;11.00;39.60;;;;;;5042074;28;20135;-48
2024/03/19 07:52:26;;;;;;;9.88;5.90;;;11.00;38.90;;;;;;5042052;28;20033;-48
2024/03/19 07:54:52;;;;;;;6.82;5.68;;;10.90;38.00;;;;;;5041803;28;20037;-47
2024/03/19 07:57:17;;;;;;;8.73;5.75;;;11.00;38.10;;;;;;5041576;28;20071;-48
2024/03/19 07:59:43;;;;;;;8.65;6.13;;;11.00;37.70;;;;;;5041800;28;20554;-48
2024/03/19 08:02:09;;;;;;;8.98;6.22;;;10.80;37.20;;;;;;5047725;28;20528;-44
2024/03/19 08:04:35;;;;;;;9.98;6.28;;;10.70;36.30;;;;;;5058271;28;20021;-45
2024/03/19 08:07:01;;;;;;;9.23;5.68;;;10.60;35.20;;;;;;5041927;28;20083;-46
2024/03/19 08:09:27;;;;;;;7.78;5.03;;;10.70;35.90;;;;;;5041365;28;20115;-46
2024/03/19 08:11:53;;;;;;;7.18;5.43;;;10.80;33.20;;;;;;5043589;28;20568;-48
2024/03/19 08:14:18;;;;;;;8.98;5.30;;;10.60;34.00;;;;;;5051873;28;20100;-51
2024/03/19 08:16:44;;;;;;;7.47;5.40;;;10.60;34.30;;;;;;5043299;28;20255;-47
2024/03/19 08:19:11;;;;;;;8.60;5.65;;;10.60;33.90;;;;;;5058191;28;20477;-47
2024/03/19 08:21:36;;;;;;;9.07;6.15;;;10.50;33.20;;;;;;5041537;28;20029;-48
2024/03/19 08:24:03;;;;;;;6.40;4.82;;;10.50;33.40;;;;;;5047724;28;20531;-46
2024/03/19 08:26:28;;;;;;;7.35;4.82;;;10.20;33.10;;;;;;5046482;28;20074;-49
2024/03/19 08:28:54;;;;;;;7.95;5.10;;;10.40;32.40;;;;;;5045471;28;20033;-47
2024/03/19 08:31:19;;;;;;;6.35;4.22;;;10.50;32.70;;;;;;5045602;28;20039;-46
2024/03/19 08:33:45;;;;;;;7.35;4.57;;;10.60;33.30;;;;;;5045727;28;20500;-45
2024/03/19 08:36:10;;;;;;;6.63;5.25;;;10.60;31.90;;;;;;5039007;28;20437;-46
2024/03/19 08:38:37;;;;;;;8.13;5.65;;;10.50;30.70;;;;;;5049070;28;20297;-49
2024/03/19 08:41:06;;;;;;;6.85;4.70;;;10.50;29.20;;;;;;5042045;28;20218;-48
2024/03/19 08:43:31;;;;;;;8.07;4.47;;;10.30;30.00;;;;;;5049542;28;20108;-48
2024/03/19 08:45:56;;;;;;;8.52;5.60;;;10.20;30.40;;;;;;5049107;28;20127;-47
2024/03/19 08:48:22;;;;;;;8.88;5.20;;;10.10;30.70;;;;;;5042032;28;20029;-48
2024/03/19 08:50:48;;;;;;;6.57;4.38;;;10.10;30.90;;;;;;5056349;28;20511;-48
2024/03/19 08:53:13;;;;;;;8.05;4.15;;;10.20;32.00;;;;;;5042621;28;20067;-48
2024/03/19 08:55:39;;;;;;;8.52;4.38;;;10.40;30.90;;;;;;5047545;28;20574;-47
2024/03/19 08:58:05;;;;;;;6.82;4.80;;;10.60;30.90;;;;;;5042030;28;20021;-52
2024/03/19 09:00:31;;;;;;;5.47;4.20;;;10.70;29.80;;;;;;5053080;28;20038;-46
2024/03/19 09:02:57;;;;;;;8.63;5.18;;;10.70;29.30;;;;;;5064542;28;20029;-48
2024/03/19 09:05:23;;;;;;;6.18;4.57;;;10.70;28.30;;;;;;5044794;28;20035;-46
2024/03/19 09:07:48;;;;;;;8.35;4.63;;;10.50;28.00;;;;;;5046752;28;20115;-48
2024/03/19 09:10:14;;;;;;;7.53;5.20;;;10.50;28.20;;;;;;5041114;28;20417;-46
2024/03/19 09:12:39;;;;;;;5.00;4.00;;;10.40;26.40;;;;;;5040548;28;20484;-46
2024/03/19 09:15:11;;;;;;;5.43;4.00;;;10.10;27.60;;;;;;5044568;28;20039;-48
2024/03/19 09:17:37;;;;;;;5.93;4.15;;;10.10;27.20;;;;;;5046253;28;20039;-46
2024/03/19 09:20:05;;;;;;;7.07;4.90;;;10.30;27.40;;;;;;5046197;28;20067;-46
2024/03/19 09:22:31;;;;;;;5.43;4.25;;;10.40;27.20;;;;;;5043070;28;20021;-43
2024/03/19 09:24:56;;;;;;;6.10;3.75;;;10.40;27.20;;;;;;5048591;28;20025;-44
2024/03/19 09:27:22;;;;;;;6.78;4.43;;;10.60;26.50;;;;;;5046108;28;20520;-46
2024/03/19 09:29:47;;;;;;;9.07;4.82;;;10.60;26.10;;;;;;5044418;28;20112;-44
2024/03/19 09:32:13;;;;;;;5.35;4.15;;;10.60;26.00;;;;;;5044008;28;20020;-43
2024/03/19 09:34:38;;;;;;;3.25;2.92;;;10.40;25.90;;;;;;5052705;28;20021;-45
2024/03/19 09:37:04;;;;;;;6.22;3.83;;;10.70;27.10;;;;;;5044565;28;20029;-44
2024/03/19 09:39:29;;;;;;;7.63;4.40;;;11.00;26.70;;;;;;5048569;28;20099;-43
2024/03/19 09:42:08;;;;;;;6.00;4.10;;;11.10;25.90;;;;;;5045248;28;20515;-43
2024/03/19 09:44:34;;;;;;;6.45;4.00;;;11.10;25.20;;;;;;5047120;28;20086;-46
2024/03/19 09:47:00;;;;;;;7.68;4.15;;;10.80;25.70;;;;;;5048269;28;20107;-44
2024/03/19 09:49:34;;;;;;;9.00;4.95;;;10.80;25.60;;;;;;5053037;28;20020;-44
2024/03/19 09:52:05;;;;;;;6.72;4.00;;;10.60;24.80;;;;;;5044155;28;20118;-46
2024/03/19 09:54:31;;;;;;;7.78;4.90;;;10.30;24.80;;;;;;5040503;28;20104;-43
2024/03/19 09:56:58;;;;;;;6.30;4.93;;;10.40;25.30;;;;;;5048140;28;20052;-43
2024/03/19 09:59:26;;;;;;;6.05;4.10;;;10.30;25.00;;;;;;5042203;28;20202;-44
2024/03/19 10:01:54;;;;;;;6.40;3.95;;;10.20;25.20;;;;;;5044853;28;20025;-47
2024/03/19 10:04:20;;;;;;;5.20;3.55;;;10.10;25.90;;;;;;5039688;28;20021;-44
2024/03/19 10:06:47;;;;;;;6.13;4.35;;;10.10;26.80;;;;;;5045466;28;20078;-45
2024/03/19 10:09:16;;;;;;;6.68;4.32;;;10.20;25.70;;;;;;5041897;28;20045;-47
2024/03/19 10:11:41;;;;;;;5.05;3.22;;;10.30;25.20;;;;;;5046641;28;20459;-44
2024/03/19 10:14:09;;;;;;;5.50;3.55;;;10.30;26.10;;;;;;5045458;28;20050;-43
2024/03/19 10:16:42;;;;;;;7.47;4.00;;;10.40;25.80;;;;;;5041083;28;20275;-45
2024/03/19 10:19:10;;;;;;;5.30;4.55;;;10.40;23.90;;;;;;5037184;28;20036;-45
2024/03/19 10:21:36;;;;;;;6.47;4.55;;;10.20;24.70;;;;;;5041045;28;20411;-44
2024/03/19 10:24:28;;;;;;;5.07;3.88;;;10.20;24.80;;;;;;5039754;28;20025;-44
2024/03/19 10:26:55;;;;;;;6.10;4.88;;;9.90;25.30;;;;;;5041287;28;20504;-47
2024/03/19 10:29:20;;;;;;;7.70;4.78;;;9.90;25.70;;;;;;5043626;28;20029;-48
2024/03/19 10:31:46;;;;;;;6.57;4.18;;;9.60;25.20;;;;;;5039288;28;20024;-46
2024/03/19 10:34:20;;;;;;;7.82;5.30;;;9.40;25.70;;;;;;5056862;28;20021;-48
2024/03/19 10:36:50;;;;;;;6.70;4.28;;;9.30;25.40;;;;;;5047621;28;20037;-47
2024/03/19 10:39:17;;;;;;;6.95;4.35;;;9.20;25.20;;;;;;5035280;28;20519;-48
2024/03/19 10:41:43;;;;;;;5.40;4.20;;;8.90;25.40;;;;;;5041132;28;20035;-49
2024/03/19 10:44:18;;;;;;;7.60;4.57;;;8.80;25.10;;;;;;5047256;28;20017;-46
2024/03/19 10:46:45;;;;;;;8.30;6.05;;;8.70;25.80;;;;;;5040755;28;20039;-51
2024/03/19 10:49:15;;;;;;;8.15;5.53;;;8.50;25.80;;;;;;5043807;28;20508;-49
2024/03/19 10:51:44;;;;;;;6.28;4.65;;;8.30;25.80;;;;;;5047075;28;20029;-44
2024/03/19 10:54:14;;;;;;;6.88;5.00;;;8.20;26.40;;;;;;5050074;28;20047;-46
2024/03/19 10:56:41;;;;;;;9.18;5.18;;;8.20;26.50;;;;;;5047292;28;20473;-47
2024/03/19 10:59:12;;;;;;;6.47;4.78;;;8.20;26.50;;;;;;5050881;28;20488;-47
2024/03/19 11:01:57;;;;;;;9.80;5.18;;;8.10;26.10;;;;;;5046320;28;20040;-44
2024/03/19 11:04:26;;;;;;;9.77;5.50;;;8.00;26.80;;;;;;5049532;28;20111;-45
2024/03/19 11:06:56;;;;;;;7.68;5.60;;;8.10;26.40;;;;;;5044641;28;20392;-44
2024/03/19 11:09:24;;;;;;;8.60;4.57;;;7.90;26.40;;;;;;5044485;28;20068;-50
2024/03/19 11:11:51;;;;;;;7.97;5.18;;;7.80;26.60;;;;;;5051112;28;20096;-46
2024/03/19 11:14:17;;;;;;;5.78;4.35;;;7.80;27.60;;;;;;5042613;28;20476;-45
2024/03/19 11:16:44;;;;;;;6.00;4.75;;;7.90;27.30;;;;;;5046866;28;20086;-44
2024/03/19 11:19:24;;;;;;;7.55;4.10;;;7.90;27.10;;;;;;5050849;28;20021;-45
2024/03/19 11:21:53;;;;;;;9.60;5.90;;;8.00;26.80;;;;;;5048645;28;20081;-45
2024/03/19 11:24:24;;;;;;;7.35;4.43;;;7.90;27.00;;;;;;5051339;28;20028;-45
2024/03/19 11:27:00;;;;;;;7.10;4.72;;;8.00;27.20;;;;;;5045331;28;23036;-47
2024/03/19 11:29:37;;;;;;;8.07;6.18;;;8.00;27.70;;;;;;5048107;28;20020;-45
2024/03/19 11:32:04;;;;;;;7.22;4.50;;;8.00;27.30;;;;;;5039660;28;20021;-46
2024/03/19 11:34:29;;;;;;;7.75;5.57;;;7.90;27.10;;;;;;5043752;28;20110;-44
2024/03/19 11:36:56;;;;;;;8.60;5.28;;;8.00;27.60;;;;;;5048629;28;20071;-47
2024/03/19 11:39:22;;;;;;;7.28;5.05;;;8.00;27.70;;;;;;5036935;28;20330;-44
2024/03/19 11:41:49;;;;;;;7.45;4.50;;;7.90;27.80;;;;;;5042609;28;20037;-46
2024/03/19 11:44:16;;;;;;;6.43;4.75;;;7.90;27.50;;;;;;5046585;28;20032;-46
2024/03/19 11:46:44;;;;;;;7.80;5.60;;;7.90;27.50;;;;;;5051075;28;20044;-47
2024/03/19 11:49:29;;;;;;;8.52;6.03;;;8.00;27.50;;;;;;5046354;28;20523;-45
2024/03/19 11:52:06;;;;;;;8.30;5.47;;;8.20;27.40;;;;;;5049411;28;20029;-44
2024/03/19 11:54:43;;;;;;;9.27;5.28;;;8.40;26.70;;;;;;5052105;28;20385;-44
2024/03/19 11:57:15;;;;;;;8.50;5.43;;;8.40;26.40;;;;;;5053186;28;20512;-46
2024/03/19 11:59:41;;;;;;;8.05;5.15;;;8.30;26.20;;;;;;5045831;28;20386;-46
2024/03/19 12:02:08;;;;;;;7.38;4.70;;;8.30;26.20;;;;;;5042531;28;20024;-46
2024/03/19 12:04:35;;;;;;;8.50;6.25;;;8.30;26.30;;;;;;5047786;28;20028;-44
2024/03/19 12:07:01;;;;;;;7.47;4.68;;;8.40;26.20;;;;;;5053491;28;20031;-46
2024/03/19 12:09:27;;;;;;;7.15;5.50;;;8.30;26.10;;;;;;5046563;28;20038;-45
2024/03/19 12:11:54;;;;;;;8.90;5.68;;;8.40;26.10;;;;;;5056203;28;20021;-45
2024/03/19 12:14:26;;;;;;;9.95;6.03;;;8.40;26.20;;;;;;5053066;28;20479;-44
2024/03/19 12:16:51;;;;;;;7.00;4.88;;;8.30;26.40;;;;;;5055749;28;20442;-45
2024/03/19 12:19:19;;;;;;;9.15;4.82;;;8.30;26.30;;;;;;5045564;28;20029;-48
2024/03/19 12:21:45;;;;;;;9.50;5.30;;;8.40;26.20;;;;;;5051536;28;20024;-44
2024/03/19 12:24:12;;;;;;;8.85;5.97;;;8.50;26.40;;;;;;5055630;28;20029;-46
2024/03/19 12:26:43;;;;;;;8.88;6.05;;;8.60;26.30;;;;;;5052903;28;20078;-47
2024/03/19 12:29:20;;;;;;;9.13;5.90;;;8.70;26.20;;;;;;5053207;28;20384;-45
2024/03/19 12:32:04;;;;;;;8.63;5.57;;;8.70;26.00;;;;;;5048897;28;20083;-47
2024/03/19 12:37:13;;;;;;;7.47;5.72;;;8.70;25.20;;;;;;5043574;28;20040;-45
2024/03/19 12:39:39;;;;;;;8.50;5.22;;;8.60;25.50;;;;;;5040708;28;20167;-45
2024/03/19 12:42:15;;;;;;;8.00;5.60;;;8.60;25.60;;;;;;5044704;28;20029;-44
2024/03/19 12:44:42;;;;;;;9.73;6.70;;;8.50;26.00;;;;;;5040442;28;20029;-46
2024/03/19 12:47:11;;;;;;;11.70;6.65;;;8.60;26.20;;;;;;5041071;28;20556;-46
2024/03/19 12:49:39;;;;;;;8.10;5.10;;;8.70;25.80;;;;;;5040988;28;20025;-44
2024/03/19 12:52:08;;;;;;;11.38;6.47;;;8.70;26.00;;;;;;5040854;28;20032;-51